createdAt,value
2023-05-15T00:00:32.484Z,100.00
2023-05-15T00:01:29.186Z,100.00
2023-05-15T00:02:25.767Z,100.00
2023-05-15T00:03:22.504Z,100.00
2023-05-15T00:04:19.163Z,100.00
2023-05-15T00:05:16.188Z,100.00
2023-05-15T00:06:12.788Z,100.00
2023-05-15T00:07:09.296Z,100.00
2023-05-15T00:08:06.273Z,100.00
2023-05-15T00:09:02.797Z,100.00
2023-05-15T00:09:59.443Z,100.00
2023-05-15T00:11:01.513Z,100.00
2023-05-15T00:11:58.648Z,100.00
2023-05-15T00:12:55.350Z,100.00
2023-05-15T00:13:52.305Z,100.00
2023-05-15T00:14:48.803Z,100.00
2023-05-15T00:15:45.339Z,100.00
2023-05-15T00:16:42.080Z,100.00
2023-05-15T00:17:38.674Z,100.00
2023-05-15T00:18:35.544Z,100.00
2023-05-15T00:19:32.048Z,100.00
2023-05-15T00:20:28.578Z,100.00
2023-05-15T00:21:25.046Z,100.00
2023-05-15T00:22:21.536Z,100.00
2023-05-15T00:23:18.078Z,100.00
2023-05-15T00:24:14.757Z,100.00
2023-05-15T00:25:11.451Z,100.00
2023-05-15T00:26:08.013Z,100.00
2023-05-15T00:27:04.589Z,100.00
2023-05-15T00:28:01.049Z,99.54
2023-05-15T00:28:57.809Z,98.71
2023-05-15T00:29:54.359Z,98.21
2023-05-15T00:30:51.930Z,99.03
2023-05-15T00:31:48.422Z,100.00
2023-05-15T00:32:44.912Z,100.00
2023-05-15T00:33:41.487Z,100.00
2023-05-15T00:34:37.972Z,99.99
2023-05-15T00:35:34.499Z,99.81
2023-05-15T00:36:31.024Z,100.00
2023-05-15T00:37:27.504Z,100.00
2023-05-15T00:38:23.954Z,99.63
2023-05-15T00:39:20.508Z,99.73
2023-05-15T00:40:20.625Z,100.00
2023-05-15T00:41:18.126Z,100.00
2023-05-15T00:42:15.458Z,100.00
2023-05-15T00:43:12.377Z,100.00
2023-05-15T00:44:09.911Z,100.00
2023-05-15T00:45:08.689Z,100.00
2023-05-15T00:46:06.636Z,100.00
2023-05-15T00:47:04.026Z,100.00
2023-05-15T00:48:01.425Z,100.00
2023-05-15T00:48:58.239Z,100.00
2023-05-15T00:49:55.697Z,100.00
2023-05-15T00:50:52.375Z,100.00
2023-05-15T00:51:49.185Z,100.00
2023-05-15T00:52:46.035Z,100.00
2023-05-15T00:53:42.825Z,100.00
2023-05-15T00:54:39.442Z,100.00
2023-05-15T00:55:36.589Z,100.00
2023-05-15T00:56:33.881Z,100.00
2023-05-15T00:57:31.265Z,100.00
2023-05-15T00:58:29.415Z,100.00
2023-05-15T00:59:30.144Z,100.00
2023-05-15T01:00:27.319Z,100.00
2023-05-15T01:01:25.758Z,100.00
2023-05-15T01:02:22.514Z,100.00
2023-05-15T01:03:19.176Z,100.00
2023-05-15T01:04:15.713Z,100.00
2023-05-15T01:05:12.214Z,100.00
2023-05-15T01:06:08.706Z,99.66
2023-05-15T01:07:05.202Z,99.68
2023-05-15T01:08:07.900Z,100.00
2023-05-15T01:09:05.794Z,100.00
2023-05-15T01:10:04.376Z,100.00
2023-05-15T01:11:02.889Z,100.00
2023-05-15T01:12:00.765Z,100.00
2023-05-15T01:12:57.479Z,100.00
2023-05-15T01:13:53.999Z,100.00
2023-05-15T01:14:50.711Z,99.72
2023-05-15T01:15:47.310Z,99.87
2023-05-15T01:16:43.799Z,99.90
2023-05-15T01:17:40.744Z,99.71
2023-05-15T01:18:37.389Z,99.71
2023-05-15T01:19:34.385Z,99.74
2023-05-15T01:20:34.327Z,100.00
2023-05-15T01:21:37.540Z,99.83
2023-05-15T01:22:41.132Z,99.80
2023-05-15T01:23:56.472Z,99.84
2023-05-15T01:25:11.352Z,99.36
2023-05-15T01:26:17.811Z,98.87
2023-05-15T01:27:14.339Z,97.87
2023-05-15T01:28:12.368Z,97.20
2023-05-15T01:29:13.006Z,96.82
2023-05-15T01:30:15.986Z,97.52
2023-05-15T01:31:16.649Z,98.57
2023-05-15T01:32:18.486Z,98.80
2023-05-15T01:33:18.928Z,98.53
2023-05-15T01:34:18.930Z,98.87
2023-05-15T01:35:25.005Z,99.78
2023-05-15T01:36:27.163Z,100.00
2023-05-15T01:37:25.062Z,100.00
2023-05-15T01:38:21.500Z,100.00
2023-05-15T01:39:20.331Z,99.11
2023-05-15T01:40:18.721Z,98.17
2023-05-15T01:41:21.316Z,97.77
2023-05-15T01:42:19.509Z,97.70
2023-05-15T01:43:18.752Z,98.54
2023-05-15T01:44:17.345Z,99.10
2023-05-15T01:45:14.196Z,99.97
2023-05-15T01:46:13.520Z,100.00
2023-05-15T01:47:15.029Z,100.00
2023-05-15T01:48:13.735Z,100.00
2023-05-15T01:49:12.298Z,100.00
2023-05-15T01:50:10.204Z,100.00
2023-05-15T01:51:07.871Z,100.00
2023-05-15T01:52:10.810Z,100.00
2023-05-15T01:53:09.273Z,100.00
2023-05-15T01:54:06.978Z,100.00
2023-05-15T01:55:04.413Z,99.48
2023-05-15T01:56:02.486Z,99.36
2023-05-15T01:56:59.022Z,99.33
2023-05-15T01:57:56.609Z,98.90
2023-05-15T01:58:53.800Z,97.95
2023-05-15T01:59:50.942Z,97.74
2023-05-15T02:00:48.058Z,97.59
2023-05-15T02:01:45.250Z,97.44
2023-05-15T02:02:42.330Z,98.58
2023-05-15T02:03:40.360Z,98.58
2023-05-15T02:04:38.089Z,99.34
2023-05-15T02:05:35.019Z,99.65
2023-05-15T02:06:32.037Z,99.95
2023-05-15T02:07:29.075Z,100.00
2023-05-15T02:08:28.887Z,100.00
2023-05-15T02:09:26.209Z,100.00
2023-05-15T02:10:23.086Z,100.00
2023-05-15T02:11:19.969Z,100.00
2023-05-15T02:12:17.034Z,100.00
2023-05-15T02:13:13.750Z,100.00
2023-05-15T02:14:11.180Z,100.00
2023-05-15T02:15:09.198Z,100.00
2023-05-15T02:16:06.028Z,100.00
2023-05-15T02:17:02.595Z,100.00
2023-05-15T02:17:59.109Z,100.00
2023-05-15T02:18:55.683Z,100.00
2023-05-15T02:19:52.240Z,100.00
2023-05-15T02:20:48.824Z,100.00
2023-05-15T02:21:45.290Z,100.00
2023-05-15T02:22:41.772Z,100.00
2023-05-15T02:23:39.249Z,100.00
2023-05-15T02:24:35.750Z,100.00
2023-05-15T02:25:38.576Z,100.00
2023-05-15T02:26:56.971Z,100.00
2023-05-15T02:28:00.367Z,100.00
2023-05-15T02:29:02.795Z,100.00
2023-05-15T02:30:02.353Z,100.00
2023-05-15T02:31:01.369Z,100.00
2023-05-15T02:31:57.889Z,100.00
2023-05-15T02:32:58.793Z,100.00
2023-05-15T02:34:15.520Z,100.00
2023-05-15T02:35:33.230Z,100.00
2023-05-15T02:36:32.417Z,100.00
2023-05-15T02:37:31.194Z,100.00
2023-05-15T02:38:33.255Z,100.00
2023-05-15T02:39:30.173Z,100.00
2023-05-15T02:40:28.622Z,100.00
2023-05-15T02:41:25.532Z,100.00
2023-05-15T02:42:22.735Z,100.00
2023-05-15T02:43:20.052Z,100.00
2023-05-15T02:44:17.752Z,100.00
2023-05-15T02:45:14.910Z,100.00
2023-05-15T02:46:12.474Z,100.00
2023-05-15T02:47:11.308Z,100.00
2023-05-15T02:48:09.124Z,100.00
2023-05-15T02:49:05.980Z,99.96
2023-05-15T02:50:02.936Z,99.99
2023-05-15T02:50:59.408Z,100.00
2023-05-15T02:51:55.888Z,100.00
2023-05-15T02:53:01.245Z,100.00
2023-05-15T02:53:59.819Z,100.00
2023-05-15T02:54:56.318Z,100.00
2023-05-15T02:55:52.884Z,100.00
2023-05-15T02:56:49.328Z,100.00
2023-05-15T02:57:45.948Z,100.00
2023-05-15T02:58:42.598Z,100.00
2023-05-15T02:59:39.194Z,100.00
2023-05-15T03:00:35.800Z,100.00
2023-05-15T03:01:32.502Z,100.00
2023-05-15T03:02:29.001Z,98.71
2023-05-15T03:03:25.519Z,98.23
2023-05-15T03:04:22.139Z,98.99
2023-05-15T03:05:18.714Z,100.00
2023-05-15T03:06:15.282Z,100.00
2023-05-15T03:07:11.824Z,100.00
2023-05-15T03:08:08.321Z,100.00
2023-05-15T03:09:04.864Z,100.00
2023-05-15T03:10:01.338Z,100.00
2023-05-15T03:10:58.405Z,100.00
2023-05-15T03:11:54.889Z,100.00
2023-05-15T03:12:51.452Z,100.00
2023-05-15T03:13:48.033Z,99.57
2023-05-15T03:14:44.514Z,99.83
2023-05-15T03:15:40.983Z,99.43
2023-05-15T03:16:39.007Z,99.32
2023-05-15T03:17:35.684Z,99.59
2023-05-15T03:18:32.218Z,100.00
2023-05-15T03:19:28.696Z,100.00
2023-05-15T03:20:25.303Z,100.00
2023-05-15T03:21:21.900Z,100.00
2023-05-15T03:22:18.610Z,99.95
2023-05-15T03:23:15.113Z,99.48
2023-05-15T03:24:11.901Z,99.52
2023-05-15T03:25:11.604Z,99.44
2023-05-15T03:26:08.121Z,99.72
2023-05-15T03:27:05.236Z,99.58
2023-05-15T03:28:01.713Z,99.83
2023-05-15T03:28:58.288Z,100.00
2023-05-15T03:29:54.770Z,100.00
2023-05-15T03:30:51.254Z,100.00
2023-05-15T03:31:47.764Z,100.00
2023-05-15T03:32:44.284Z,100.00
2023-05-15T03:33:40.894Z,100.00
2023-05-15T03:34:38.369Z,98.85
2023-05-15T03:35:36.236Z,98.26
2023-05-15T03:36:32.722Z,98.08
2023-05-15T03:37:29.218Z,98.00
2023-05-15T03:38:25.837Z,97.15
2023-05-15T03:39:22.261Z,96.59
2023-05-15T03:40:18.761Z,96.51
2023-05-15T03:41:15.307Z,97.16
2023-05-15T03:42:11.792Z,97.37
2023-05-15T03:43:08.215Z,97.47
2023-05-15T03:44:04.777Z,97.94
2023-05-15T03:45:01.346Z,97.12
2023-05-15T03:45:59.056Z,96.54
2023-05-15T03:46:55.598Z,96.47
2023-05-15T03:47:52.135Z,96.53
2023-05-15T03:48:48.693Z,97.14
2023-05-15T03:49:46.176Z,98.16
2023-05-15T03:50:44.450Z,99.04
2023-05-15T03:51:40.946Z,99.42
2023-05-15T03:52:38.524Z,99.78
2023-05-15T03:53:36.620Z,100.00
2023-05-15T03:54:33.370Z,99.88
2023-05-15T03:55:29.893Z,99.82
2023-05-15T03:56:26.468Z,99.70
2023-05-15T03:57:22.971Z,99.18
2023-05-15T03:58:19.405Z,99.35
2023-05-15T03:59:15.840Z,99.34
2023-05-15T04:00:12.806Z,98.94
2023-05-15T04:01:09.350Z,98.70
2023-05-15T04:02:05.931Z,98.42
2023-05-15T04:03:02.831Z,98.09
2023-05-15T04:03:59.495Z,97.61
2023-05-15T04:04:56.026Z,98.07
2023-05-15T04:05:52.528Z,98.35
2023-05-15T04:06:49.951Z,97.70
2023-05-15T04:07:46.461Z,97.32
2023-05-15T04:08:42.952Z,96.33
2023-05-15T04:09:39.447Z,95.67
2023-05-15T04:10:35.937Z,94.48
2023-05-15T04:11:34.794Z,94.45
2023-05-15T04:12:32.593Z,94.75
2023-05-15T04:13:29.223Z,95.76
2023-05-15T04:14:25.764Z,96.29
2023-05-15T04:15:23.832Z,96.70
2023-05-15T04:16:20.638Z,96.60
2023-05-15T04:17:17.094Z,96.83
2023-05-15T04:18:13.536Z,96.27
2023-05-15T04:19:10.036Z,96.27
2023-05-15T04:20:07.393Z,96.07
2023-05-15T04:21:03.957Z,95.99
2023-05-15T04:22:00.476Z,96.20
2023-05-15T04:22:57.005Z,95.84
2023-05-15T04:23:53.500Z,94.56
2023-05-15T04:24:49.993Z,94.01
2023-05-15T04:25:46.900Z,94.28
2023-05-15T04:26:43.436Z,95.03
2023-05-15T04:27:40.508Z,95.39
2023-05-15T04:28:37.089Z,95.40
2023-05-15T04:29:33.612Z,95.69
2023-05-15T04:30:30.125Z,95.57
2023-05-15T04:31:27.723Z,94.97
2023-05-15T04:32:24.242Z,92.87
2023-05-15T04:33:20.952Z,92.71
2023-05-15T04:34:17.430Z,93.18
2023-05-15T04:35:15.471Z,93.65
2023-05-15T04:36:12.024Z,94.48
2023-05-15T04:37:08.518Z,93.92
2023-05-15T04:38:04.955Z,94.05
2023-05-15T04:39:01.542Z,94.44
2023-05-15T04:39:58.007Z,94.68
2023-05-15T04:40:54.583Z,94.50
2023-05-15T04:41:51.243Z,94.26
2023-05-15T04:42:47.791Z,94.17
2023-05-15T04:43:44.285Z,93.22
2023-05-15T04:44:41.047Z,91.51
2023-05-15T04:45:37.792Z,91.95
2023-05-15T04:46:35.057Z,92.38
2023-05-15T04:47:31.599Z,92.58
2023-05-15T04:48:28.084Z,93.68
2023-05-15T04:49:24.585Z,94.43
2023-05-15T04:50:21.107Z,94.62
2023-05-15T04:51:17.566Z,95.06
2023-05-15T04:52:14.154Z,95.21
2023-05-15T04:53:10.635Z,94.54
2023-05-15T04:54:07.272Z,94.34
2023-05-15T04:55:03.944Z,94.32
2023-05-15T04:56:00.673Z,93.72
2023-05-15T04:56:57.950Z,93.82
2023-05-15T04:57:54.493Z,94.21
2023-05-15T04:58:50.958Z,94.26
2023-05-15T04:59:47.453Z,95.22
2023-05-15T05:00:44.100Z,96.19
2023-05-15T05:01:40.718Z,96.82
2023-05-15T05:02:37.536Z,95.69
2023-05-15T05:03:34.080Z,95.77
2023-05-15T05:04:30.749Z,95.95
2023-05-15T05:05:27.480Z,96.05
2023-05-15T05:06:24.170Z,95.98
2023-05-15T05:07:20.751Z,95.94
2023-05-15T05:08:17.249Z,96.43
2023-05-15T05:09:13.842Z,96.03
2023-05-15T05:10:10.558Z,96.09
2023-05-15T05:11:07.084Z,95.29
2023-05-15T05:12:03.701Z,94.91
2023-05-15T05:13:00.193Z,94.54
2023-05-15T05:13:56.707Z,93.45
2023-05-15T05:14:53.277Z,92.88
2023-05-15T05:15:49.872Z,94.26
2023-05-15T05:16:46.471Z,95.61
2023-05-15T05:17:42.993Z,95.85
2023-05-15T05:18:39.512Z,94.37
2023-05-15T05:19:36.020Z,94.67
2023-05-15T05:20:32.529Z,94.60
2023-05-15T05:21:29.010Z,93.91
2023-05-15T05:22:25.543Z,93.15
2023-05-15T05:23:21.990Z,93.72
2023-05-15T05:24:18.538Z,93.81
2023-05-15T05:25:15.050Z,94.50
2023-05-15T05:26:11.528Z,94.31
2023-05-15T05:27:08.073Z,93.90
2023-05-15T05:28:04.673Z,94.41
2023-05-15T05:29:01.124Z,94.83
2023-05-15T05:29:57.713Z,95.40
2023-05-15T05:30:54.263Z,95.80
2023-05-15T05:31:51.392Z,95.81
2023-05-15T05:32:48.043Z,95.64
2023-05-15T05:33:44.591Z,94.76
2023-05-15T05:34:41.236Z,93.88
2023-05-15T05:35:37.823Z,93.40
2023-05-15T05:36:34.315Z,91.81
2023-05-15T05:37:30.819Z,91.41
2023-05-15T05:38:27.775Z,91.69
2023-05-15T05:39:24.236Z,92.85
2023-05-15T05:40:20.730Z,93.29
2023-05-15T05:41:17.238Z,93.63
2023-05-15T05:42:13.715Z,93.94
2023-05-15T05:43:10.272Z,93.52
2023-05-15T05:44:06.875Z,93.43
2023-05-15T05:45:03.451Z,92.28
2023-05-15T05:46:00.037Z,93.00
2023-05-15T05:46:56.520Z,93.33
2023-05-15T05:47:53.091Z,92.48
2023-05-15T05:48:49.546Z,93.17
2023-05-15T05:49:48.182Z,93.07
2023-05-15T05:50:44.802Z,92.79
2023-05-15T05:51:41.262Z,91.52
2023-05-15T05:52:37.898Z,92.01
2023-05-15T05:53:34.504Z,92.32
2023-05-15T05:54:31.062Z,93.31
2023-05-15T05:55:27.759Z,93.80
2023-05-15T05:56:24.457Z,94.08
2023-05-15T05:57:21.028Z,93.88
2023-05-15T05:59:20.853Z,91.59
2023-05-15T06:00:17.628Z,92.12
2023-05-15T06:01:14.196Z,91.39
2023-05-15T06:02:11.494Z,91.15
2023-05-15T06:03:08.199Z,91.62
2023-05-15T06:04:04.975Z,90.75
2023-05-15T06:05:01.903Z,90.15
2023-05-15T06:05:58.503Z,89.66
2023-05-15T06:06:54.962Z,89.10
2023-05-15T06:07:52.466Z,88.72
2023-05-15T06:08:48.931Z,85.18
2023-05-15T06:09:46.967Z,83.61
2023-05-15T06:10:43.512Z,84.73
2023-05-15T06:11:40.456Z,85.40
2023-05-15T06:12:37.002Z,86.98
2023-05-15T06:13:33.476Z,86.72
2023-05-15T06:14:30.015Z,87.22
2023-05-15T06:15:27.039Z,86.43
2023-05-15T06:16:23.592Z,84.59
2023-05-15T06:17:20.076Z,83.75
2023-05-15T06:18:16.621Z,83.22
2023-05-15T06:19:13.188Z,84.50
2023-05-15T06:20:09.962Z,85.41
2023-05-15T06:21:06.456Z,85.59
2023-05-15T06:22:03.012Z,86.01
2023-05-15T06:22:59.565Z,83.47
2023-05-15T06:23:56.072Z,84.28
2023-05-15T06:24:52.515Z,84.43
2023-05-15T06:25:49.060Z,81.90
2023-05-15T06:26:45.610Z,81.27
2023-05-15T06:27:42.409Z,83.93
2023-05-15T06:28:38.911Z,84.88
2023-05-15T06:29:35.872Z,84.42
2023-05-15T06:30:32.372Z,82.54
2023-05-15T06:31:29.041Z,80.91
2023-05-15T06:32:25.826Z,79.83
2023-05-15T06:33:22.303Z,79.42
2023-05-15T06:34:18.801Z,82.67
2023-05-15T06:35:15.501Z,82.27
2023-05-15T06:36:12.273Z,79.21
2023-05-15T06:37:08.799Z,78.75
2023-05-15T06:38:05.483Z,79.76
2023-05-15T06:39:01.932Z,80.30
2023-05-15T06:39:58.482Z,81.53
2023-05-15T06:40:54.930Z,84.39
2023-05-15T06:41:54.085Z,83.63
2023-05-15T06:42:50.709Z,84.32
2023-05-15T06:43:47.180Z,84.04
2023-05-15T06:44:43.663Z,83.96
2023-05-15T06:45:40.115Z,83.54
2023-05-15T06:46:36.653Z,80.82
2023-05-15T06:47:33.307Z,79.72
2023-05-15T06:48:29.793Z,79.76
2023-05-15T06:49:26.817Z,82.35
2023-05-15T06:50:23.326Z,82.40
2023-05-15T06:51:19.820Z,82.26
2023-05-15T06:52:16.428Z,83.54
2023-05-15T06:53:14.511Z,82.36
2023-05-15T06:54:11.201Z,81.52
2023-05-15T06:55:08.046Z,82.13
2023-05-15T06:56:04.735Z,82.82
2023-05-15T06:57:01.201Z,81.49
2023-05-15T06:57:57.731Z,81.51
2023-05-15T06:58:54.422Z,81.17
2023-05-15T06:59:50.898Z,79.08
2023-05-15T07:00:48.577Z,79.39
2023-05-15T07:01:45.393Z,81.29
2023-05-15T07:02:41.958Z,80.77
2023-05-15T07:03:38.535Z,80.57
2023-05-15T07:04:35.174Z,80.47
2023-05-15T07:05:31.646Z,79.43
2023-05-15T07:06:28.419Z,80.04
2023-05-15T07:07:24.884Z,80.71
2023-05-15T07:08:21.455Z,80.68
2023-05-15T07:09:18.007Z,78.55
2023-05-15T07:10:14.468Z,79.17
2023-05-15T07:11:10.967Z,80.81
2023-05-15T07:12:07.643Z,81.80
2023-05-15T07:13:04.156Z,81.92
2023-05-15T07:14:00.669Z,78.92
2023-05-15T07:14:57.199Z,79.46
2023-05-15T07:15:53.653Z,79.71
2023-05-15T07:16:50.138Z,80.06
2023-05-15T07:17:46.675Z,81.51
2023-05-15T07:18:43.453Z,80.97
2023-05-15T07:19:39.950Z,80.95
2023-05-15T07:20:36.586Z,80.13
2023-05-15T07:21:33.250Z,79.44
2023-05-15T07:22:29.717Z,78.79
2023-05-15T07:23:26.529Z,80.54
2023-05-15T07:24:25.509Z,81.21
2023-05-15T07:25:22.329Z,82.37
2023-05-15T07:26:31.081Z,83.58
2023-05-15T07:27:31.136Z,83.22
2023-05-15T07:28:27.670Z,83.64
2023-05-15T07:29:24.390Z,84.90
2023-05-15T07:30:20.983Z,85.90
2023-05-15T07:31:17.538Z,86.02
2023-05-15T07:32:14.016Z,84.87
2023-05-15T07:33:10.935Z,85.26
2023-05-15T07:34:07.407Z,86.19
2023-05-15T07:35:05.040Z,85.68
2023-05-15T07:36:01.479Z,84.51
2023-05-15T07:36:57.979Z,83.90
2023-05-15T07:37:54.562Z,84.54
2023-05-15T07:38:51.083Z,85.46
2023-05-15T07:39:47.629Z,85.54
2023-05-15T07:40:44.135Z,85.19
2023-05-15T07:41:40.639Z,85.68
2023-05-15T07:42:37.114Z,83.09
2023-05-15T07:43:33.733Z,81.61
2023-05-15T07:44:30.206Z,80.55
2023-05-15T07:45:27.157Z,80.31
2023-05-15T07:46:24.045Z,82.94
2023-05-15T07:47:20.728Z,82.32
2023-05-15T07:48:17.773Z,83.33
2023-05-15T07:49:14.298Z,83.95
2023-05-15T07:50:10.959Z,83.66
2023-05-15T07:51:07.465Z,84.28
2023-05-15T07:52:04.009Z,85.13
2023-05-15T07:53:00.489Z,83.83
2023-05-15T07:53:57.011Z,81.93
2023-05-15T07:54:53.466Z,80.95
2023-05-15T07:55:50.120Z,80.80
2023-05-15T07:56:46.588Z,80.89
2023-05-15T07:57:43.062Z,80.96
2023-05-15T07:58:40.351Z,81.50
2023-05-15T07:59:36.982Z,83.04
2023-05-15T08:00:33.714Z,83.31
2023-05-15T08:01:31.408Z,81.79
2023-05-15T08:02:29.295Z,79.95
2023-05-15T08:03:26.094Z,80.47
2023-05-15T08:04:22.748Z,81.79
2023-05-15T08:05:19.208Z,82.93
2023-05-15T08:06:16.299Z,82.05
2023-05-15T08:07:13.555Z,82.20
2023-05-15T08:08:10.045Z,82.95
2023-05-15T08:09:06.563Z,82.26
2023-05-15T08:10:06.131Z,82.93
2023-05-15T08:11:02.859Z,82.96
2023-05-15T08:12:15.234Z,82.63
2023-05-15T08:13:11.700Z,83.38
2023-05-15T08:14:08.217Z,85.11
2023-05-15T08:15:05.013Z,86.10
2023-05-15T08:16:01.640Z,85.27
2023-05-15T08:16:58.186Z,83.18
2023-05-15T08:17:54.814Z,81.33
2023-05-15T08:18:53.646Z,81.03
2023-05-15T08:19:50.420Z,79.28
2023-05-15T08:20:47.723Z,79.58
2023-05-15T08:21:44.331Z,79.59
2023-05-15T08:22:40.942Z,78.60
2023-05-15T08:23:37.392Z,81.18
2023-05-15T08:24:34.155Z,84.03
2023-05-15T08:25:30.740Z,85.61
2023-05-15T08:26:27.198Z,86.00
2023-05-15T08:27:23.691Z,86.85
2023-05-15T08:28:20.168Z,87.36
2023-05-15T08:29:17.037Z,87.63
2023-05-15T08:30:13.818Z,87.06
2023-05-15T08:31:10.295Z,87.23
2023-05-15T08:32:07.767Z,87.81
2023-05-15T08:33:04.451Z,87.15
2023-05-15T08:34:00.992Z,87.50
2023-05-15T08:34:58.162Z,86.75
2023-05-15T08:35:54.742Z,85.91
2023-05-15T08:36:52.386Z,86.35
2023-05-15T08:37:48.842Z,86.41
2023-05-15T08:38:45.483Z,85.88
2023-05-15T08:39:41.990Z,85.08
2023-05-15T08:40:40.145Z,87.11
2023-05-15T08:41:47.780Z,86.71
2023-05-15T08:42:45.830Z,87.75
2023-05-15T08:43:42.903Z,87.59
2023-05-15T08:44:40.419Z,87.52
2023-05-15T08:45:37.017Z,87.35
2023-05-15T08:46:34.959Z,88.17
2023-05-15T08:47:34.709Z,89.21
2023-05-15T08:48:32.466Z,89.62
2023-05-15T08:49:47.191Z,87.90
2023-05-15T08:50:44.301Z,89.52
2023-05-15T08:51:40.988Z,89.82
2023-05-15T08:52:38.265Z,89.97
2023-05-15T08:53:34.811Z,90.25
2023-05-15T08:54:31.523Z,90.14
2023-05-15T08:55:29.016Z,88.70
2023-05-15T08:56:25.875Z,86.81
2023-05-15T08:57:22.631Z,87.19
2023-05-15T08:58:21.476Z,87.76
2023-05-15T08:59:18.366Z,86.95
2023-05-15T09:00:15.196Z,87.59
2023-05-15T09:01:13.183Z,88.00
2023-05-15T09:02:09.774Z,86.09
2023-05-15T09:03:06.870Z,86.39
2023-05-15T09:04:04.058Z,87.86
2023-05-15T09:05:00.772Z,87.52
2023-05-15T09:05:58.542Z,87.96
2023-05-15T09:06:55.565Z,87.15
2023-05-15T09:07:54.216Z,87.30
2023-05-15T09:08:52.633Z,87.02
2023-05-15T09:09:49.685Z,85.61
2023-05-15T09:10:46.546Z,85.92
2023-05-15T09:11:44.369Z,87.00
2023-05-15T09:12:43.206Z,86.80
2023-05-15T09:13:39.761Z,86.03
2023-05-15T09:14:36.238Z,86.12
2023-05-15T09:15:32.869Z,85.63
2023-05-15T09:16:29.435Z,85.08
2023-05-15T09:17:25.925Z,85.37
2023-05-15T09:18:22.742Z,85.05
2023-05-15T09:19:21.258Z,85.64
2023-05-15T09:20:28.443Z,85.67
2023-05-15T09:21:29.179Z,85.26
2023-05-15T09:22:26.086Z,85.75
2023-05-15T09:23:26.574Z,84.87
2023-05-15T09:24:24.952Z,84.43
2023-05-15T09:25:38.347Z,83.34
2023-05-15T09:26:34.956Z,83.32
2023-05-15T09:27:40.686Z,83.54
2023-05-15T09:28:37.177Z,82.65
2023-05-15T09:29:34.760Z,82.52
2023-05-15T09:30:31.302Z,81.92
2023-05-15T09:31:27.841Z,81.31
2023-05-15T09:32:27.252Z,81.02
2023-05-15T09:33:27.573Z,80.40
2023-05-15T09:34:31.379Z,81.11
2023-05-15T09:35:28.816Z,80.66
2023-05-15T09:36:25.520Z,76.93
2023-05-15T09:37:30.043Z,77.99
2023-05-15T09:38:26.561Z,77.54
2023-05-15T09:39:28.876Z,75.72
2023-05-15T09:40:28.224Z,77.13
2023-05-15T09:41:26.130Z,74.71
2023-05-15T09:42:24.592Z,78.19
2023-05-15T09:43:21.096Z,77.59
2023-05-15T09:44:21.721Z,79.36
2023-05-15T09:45:18.798Z,79.10
2023-05-15T09:46:17.181Z,78.82
2023-05-15T09:47:14.407Z,78.91
2023-05-15T09:48:12.213Z,79.30
2023-05-15T09:49:09.324Z,77.47
2023-05-15T09:50:06.175Z,77.28
2023-05-15T09:51:02.986Z,75.67
2023-05-15T09:51:59.894Z,78.16
2023-05-15T09:52:58.838Z,77.03
2023-05-15T09:53:55.429Z,77.46
2023-05-15T09:54:52.025Z,76.57
2023-05-15T09:55:49.377Z,76.19
2023-05-15T09:56:46.919Z,76.02
2023-05-15T09:57:43.377Z,73.59
2023-05-15T09:58:51.676Z,75.04
2023-05-15T09:59:48.735Z,73.41
2023-05-15T10:00:47.531Z,71.46
2023-05-15T10:01:46.369Z,72.82
2023-05-15T10:02:43.074Z,72.25
2023-05-15T10:03:42.326Z,74.26
2023-05-15T10:04:38.813Z,75.70
2023-05-15T10:06:43.178Z,75.65
2023-05-15T10:07:40.288Z,75.25
2023-05-15T10:08:37.367Z,75.47
2023-05-15T10:09:33.912Z,74.88
2023-05-15T10:10:30.848Z,76.16
2023-05-15T10:11:27.474Z,76.75
2023-05-15T10:12:24.270Z,76.75
2023-05-15T10:13:21.162Z,77.23
2023-05-15T10:14:18.784Z,76.94
2023-05-15T10:15:15.739Z,75.68
2023-05-15T10:16:13.750Z,74.77
2023-05-15T10:17:10.490Z,76.41
2023-05-15T10:18:07.849Z,77.53
2023-05-15T10:19:05.528Z,77.33
2023-05-15T10:20:02.365Z,76.60
2023-05-15T10:21:01.372Z,76.38
2023-05-15T10:21:59.642Z,77.01
2023-05-15T10:22:56.677Z,76.02
2023-05-15T10:23:54.843Z,76.32
2023-05-15T10:25:02.768Z,76.12
2023-05-15T10:26:03.256Z,76.48
2023-05-15T10:26:59.831Z,77.39
2023-05-15T10:27:57.143Z,76.85
2023-05-15T10:28:54.996Z,76.12
2023-05-15T10:29:51.633Z,76.84
2023-05-15T10:30:48.343Z,76.00
2023-05-15T10:31:44.907Z,77.02
2023-05-15T10:32:42.268Z,78.32
2023-05-15T10:33:39.089Z,77.74
2023-05-15T10:34:35.766Z,78.38
2023-05-15T10:35:33.123Z,79.63
2023-05-15T10:36:29.900Z,79.91
2023-05-15T10:37:27.999Z,80.27
2023-05-15T10:38:26.113Z,80.72
2023-05-15T10:39:24.450Z,80.89
2023-05-15T10:40:21.503Z,81.22
2023-05-15T10:41:18.283Z,80.67
2023-05-15T10:42:15.152Z,80.47
2023-05-15T10:43:13.399Z,79.55
2023-05-15T10:44:10.020Z,78.66
2023-05-15T10:45:08.920Z,79.47
2023-05-15T10:46:05.878Z,80.90
2023-05-15T10:47:03.478Z,81.39
2023-05-15T10:48:01.402Z,81.32
2023-05-15T10:48:58.867Z,82.10
2023-05-15T10:49:55.531Z,82.73
2023-05-15T10:50:52.299Z,81.45
2023-05-15T10:51:49.526Z,81.91
2023-05-15T10:52:45.995Z,83.04
2023-05-15T10:53:43.079Z,82.07
2023-05-15T10:54:39.631Z,82.59
2023-05-15T10:55:36.751Z,82.32
2023-05-15T10:56:33.677Z,82.02
2023-05-15T10:57:30.324Z,80.66
2023-05-15T10:58:26.864Z,81.46
2023-05-15T10:59:30.683Z,80.72
2023-05-15T11:00:28.999Z,81.07
2023-05-15T11:01:27.578Z,80.79
2023-05-15T11:02:25.999Z,80.38
2023-05-15T11:03:48.792Z,80.56
2023-05-15T11:04:46.715Z,81.26
2023-05-15T11:06:01.963Z,81.73
2023-05-15T11:07:11.535Z,81.78
2023-05-15T11:08:19.490Z,81.65
2023-05-15T11:09:27.490Z,81.51
2023-05-15T11:10:27.618Z,79.22
2023-05-15T11:11:54.742Z,79.32
2023-05-15T11:12:58.459Z,78.81
2023-05-15T11:14:08.089Z,78.96
2023-05-15T11:15:04.525Z,80.05
2023-05-15T11:16:01.045Z,82.23
2023-05-15T11:16:58.110Z,81.39
2023-05-15T11:18:07.657Z,78.77
2023-05-15T11:19:23.526Z,78.83
2023-05-15T11:20:20.193Z,80.04
2023-05-15T11:21:16.738Z,80.54
2023-05-15T11:22:26.318Z,79.18
2023-05-15T11:23:25.918Z,79.61
2023-05-15T11:24:26.779Z,79.27
2023-05-15T11:25:28.683Z,79.61
2023-05-15T11:26:34.402Z,79.62
2023-05-15T11:27:30.888Z,80.00
2023-05-15T11:28:29.990Z,80.60
2023-05-15T11:29:27.971Z,80.56
2023-05-15T11:30:34.781Z,80.48
2023-05-15T11:31:31.355Z,79.43
2023-05-15T11:32:46.870Z,80.53
2023-05-15T11:33:43.494Z,80.73
2023-05-15T11:34:41.781Z,80.96
2023-05-15T11:35:43.171Z,79.70
2023-05-15T11:36:40.018Z,76.85
2023-05-15T11:37:46.749Z,77.95
2023-05-15T11:38:43.538Z,79.48
2023-05-15T11:39:41.030Z,78.56
2023-05-15T11:40:45.029Z,78.71
2023-05-15T11:41:41.534Z,79.29
2023-05-15T11:42:38.097Z,78.18
2023-05-15T11:43:37.267Z,79.14
2023-05-15T11:44:33.774Z,79.12
2023-05-15T11:45:31.557Z,79.76
2023-05-15T11:46:28.502Z,80.38
2023-05-15T11:47:25.364Z,81.27
2023-05-15T11:48:23.156Z,80.85
2023-05-15T11:49:19.910Z,81.25
2023-05-15T11:50:16.666Z,79.09
2023-05-15T11:51:26.415Z,76.90
2023-05-15T11:52:24.414Z,77.21
2023-05-15T11:53:21.356Z,78.12
2023-05-15T11:54:18.031Z,77.28
2023-05-15T11:55:15.460Z,77.02
2023-05-15T11:56:25.062Z,77.33
2023-05-15T11:57:21.959Z,76.18
2023-05-15T11:58:19.993Z,77.19
2023-05-15T11:59:16.485Z,76.25
2023-05-15T12:00:13.333Z,74.18
2023-05-15T12:01:10.992Z,73.88
2023-05-15T12:02:07.581Z,74.44
2023-05-15T12:03:04.192Z,73.85
2023-05-15T12:04:01.006Z,73.47
2023-05-15T12:04:57.768Z,75.57
2023-05-15T12:05:59.786Z,74.10
2023-05-15T12:06:56.875Z,75.51
2023-05-15T12:07:53.415Z,75.93
2023-05-15T12:08:53.166Z,75.96
2023-05-15T12:09:52.720Z,77.02
2023-05-15T12:10:49.757Z,74.03
2023-05-15T12:11:53.152Z,74.71
2023-05-15T12:12:49.869Z,73.95
2023-05-15T12:13:51.215Z,74.85
2023-05-15T12:14:47.679Z,75.77
2023-05-15T12:15:47.353Z,75.59
2023-05-15T12:16:43.986Z,74.70
2023-05-15T12:17:41.018Z,74.66
2023-05-15T12:18:38.178Z,75.18
2023-05-15T12:19:35.540Z,74.77
2023-05-15T12:20:33.329Z,73.42
2023-05-15T12:21:30.903Z,72.68
2023-05-15T12:22:27.468Z,74.78